Beach Haven, NJ (08008)

9:21 PM EST on December 08, 2016 (GMT -0500)
@LBIWeather (LBIWeather.com) | | Change Station

Elev 13 ft 39.58 °N, 74.23 °W | Updated 11 seconds ago

Clear
Clear
36.8 °F
Feels Like 29 °F
N
11.0
Wind Variable Wind from NNW
Gusts 19.0 mph

Today
High -- | Low -- °F
--% Chance of Precip.
Yesterday
High -- | Low -- °F
Precip. -- in
Pressure 30.05 in
Visibility 10.0 miles
Clouds Clear
Windchill 29 °F
Dew Point 26 °F
Humidity 64%
Rainfall 0.00 in
Snow Depth Not available.
7:05 AM 4:32 PM
Waxing Gibbous, 69% visible
METAR KACY 090154Z 30016KT 10SM CLR 02/M08 A3004 RMK AO2 SLP174 T00221078
Pressure 30.05 in
Visibility 10.0 miles
Clouds Clear
Windchill 29 °F
Dew Point 26 °F
Humidity 64%
Rainfall 0.00 in
Snow Depth Not available.
7:05 AM 4:32 PM
Waxing Gibbous, 69% visible
METAR KACY 090154Z 30016KT 10SM CLR 02/M08 A3004 RMK AO2 SLP174 T00221078

10-Day Weather Forecast

Almanac

Astronomy

Dec. 08, 2016 Rise Set
Actual Time
Civil Twilight
Nautical Twilight
Astronomical Twilight
Moon
Length of Visible Light
Length of Day
Tomorrow will be .
, % of the Moon is Illuminated

Today's Extremes

State Highs State Lows

Community

WunderPhotos

Upload Photos

1,956,351 photos uploaded!

WunderBlog® & News

Nearby

Air Quality

  Air Quality AQ Index Pollutant
Not available.

Snow Depth

Station Depth Elevation

Earthquake Activity

City Distance Mag. Time & Date
Minimum magnitude displayed is 2.5.

Coastal Water Temperatures

Place Temperature

Stations

Nearby Weather Stations

Station Location Temp. Windchill Dew Point Humidity Wind Precip. Elev Updated Type
                   

Watches & Warnings

There are currently no watches in effect.